Block Island, RI (02807)

11:33 PM EDT on September 30, 2016 (GMT -0400)
Champlins Road - near Coast Guard | | Change Station

Elev 50 ft 41.19 °N, 71.59 °W | Updated 9 seconds ago

Light Rain
Light Rain Mist
60.3 °F
Feels Like 60.3 °F
N
11.0
Wind Variable Wind from ESE
Gusts 17.0 mph

Today
High -- | Low -- °F
--% Chance of Precip.
Yesterday
High -- | Low -- °F
Precip. -- in
Pressure 30.27 in
Visibility 6.0 miles
Clouds Overcast 500 ft
Dew Point 59 °F
Humidity 97%
Rainfall 0.30 in
Snow Depth Not available.
6:42 AM 6:29 PM
New Moon, 0% visible
METAR KBID 010256Z AUTO 06017G26KT 6SM -RA BR OVC005 16/15 A3025 RMK AO2 PK WND 05027/0211 CIG 004V009 SLP248 P0001 60003 T01560150 58007
Pressure 30.27 in
Visibility 6.0 miles
Clouds Overcast 500 ft
Dew Point 59 °F
Humidity 97%
Rainfall 0.30 in
Snow Depth Not available.
6:42 AM 6:29 PM
New Moon, 0% visible
METAR KBID 010256Z AUTO 06017G26KT 6SM -RA BR OVC005 16/15 A3025 RMK AO2 PK WND 05027/0211 CIG 004V009 SLP248 P0001 60003 T01560150 58007

10-Day Weather Forecast

Almanac

Astronomy

Sep. 30, 2016 Rise Set
Actual Time
Civil Twilight
Nautical Twilight
Astronomical Twilight
Moon
Length of Visible Light
Length of Day
Tomorrow will be .
, % of the Moon is Illuminated

Today's Extremes

State Highs State Lows

Community

WunderPhotos

Upload Photos

1,942,883 photos uploaded!

WunderBlog® & News

Nearby

Air Quality

  Air Quality AQ Index Pollutant
Not available.

Snow Depth

Station Depth Elevation

Earthquake Activity

City Distance Mag. Time & Date
Minimum magnitude displayed is 2.5.

Coastal Water Temperatures

Place Temperature

Stations

Nearby Weather Stations

Station Location Temp. Windchill Dew Point Humidity Wind Precip. Elev Updated Type
                   

Watches & Warnings

There are currently no watches in effect.